Time;durP1;ratioP1;P1;durP2;ratioP2;P2;SDS_P1;SDS_P2;PMS_P1;PMS_P2;Temp;Humidity;BMP_temperature;BMP_pressure;BME280_temperature;BME280_humidity;BME280_pressure;Samples;Min_cycle;Max_cycle;Signal;HPM_P1;HPM_P2
2022/03/07 00:01:58;;;;;;;0.52;0.52;;;;;;;2.97;47.32;102062.63;5158072;28;20906;-76
2022/03/07 00:04:28;;;;;;;5.97;2.30;;;;;;;2.99;46.68;102053.16;5161506;28;20057;-76
2022/03/07 00:06:59;;;;;;;0.32;0.32;;;;;;;2.98;47.05;102060.06;5177128;28;20030;-77
2022/03/07 00:09:30;;;;;;;0.50;0.50;;;;;;;2.96;47.37;102061.75;5158566;28;20584;-76
2022/03/07 00:12:09;;;;;;;0.40;0.40;;;;;;;2.94;46.98;102062.53;5165866;28;20121;-77
2022/03/07 00:14:39;;;;;;;0.30;0.30;;;;;;;2.93;47.10;102065.97;5153397;28;20076;-77
2022/03/07 00:17:10;;;;;;;0.73;0.73;;;;;;;2.90;46.89;102066.75;5158345;28;20057;-77
2022/03/07 00:19:41;;;;;;;0.20;0.20;;;;;;;2.86;47.34;102058.84;5169485;28;20061;-77
2022/03/07 00:22:11;;;;;;;0.30;0.30;;;;;;;2.87;47.90;102064.09;5189277;28;20045;-77
2022/03/07 00:24:42;;;;;;;0.30;0.30;;;;;;;2.86;47.19;102066.63;5168737;28;20097;-76
2022/03/07 00:27:14;;;;;;;0.28;0.28;;;;;;;2.80;47.20;102063.06;5165231;28;20034;-76
2022/03/07 00:29:48;;;;;;;0.30;0.30;;;;;;;2.80;47.72;102057.00;5161588;28;20042;-77
2022/03/07 00:32:19;;;;;;;0.30;0.30;;;;;;;2.81;47.60;102062.22;5175215;28;20022;-77
2022/03/07 00:34:52;;;;;;;0.70;0.70;;;;;;;2.87;47.54;102073.56;5125858;28;20619;-76
2022/03/07 00:37:22;;;;;;;0.75;0.75;;;;;;;2.78;47.10;102072.50;5123189;28;20031;-76
2022/03/07 00:39:53;;;;;;;0.43;0.43;;;;;;;2.76;47.39;102073.28;5143135;28;20412;-77
2022/03/07 00:42:26;;;;;;;0.30;0.30;;;;;;;2.72;47.54;102071.47;5168654;28;20097;-76
2022/03/07 00:44:57;;;;;;;1.13;1.13;;;;;;;2.76;47.75;102078.47;5149640;28;20653;-77
2022/03/07 00:47:28;;;;;;;0.40;0.40;;;;;;;2.66;47.87;102082.53;5170644;28;20037;-77
2022/03/07 00:50:13;;;;;;;0.20;0.20;;;;;;;2.74;47.52;102081.03;5165866;28;20137;-77
2022/03/07 00:52:44;;;;;;;0.40;0.40;;;;;;;2.72;47.51;102081.84;5168702;28;20092;-77
2022/03/07 00:55:15;;;;;;;0.80;0.80;;;;;;;2.70;47.53;102083.50;5163797;28;20424;-75
2022/03/07 00:57:48;;;;;;;0.60;0.57;;;;;;;2.63;48.21;102085.94;5156729;28;20048;-77
2022/03/07 01:01:18;;;;;;;;;;;;;;;;;;;;;
2022/03/07 01:04:01;;;;;;;0.40;0.40;;;;;;;2.55;48.00;102081.34;5098871;28;20752;-76
2022/03/07 01:06:41;;;;;;;0.30;0.30;;;;;;;2.37;48.58;102082.59;5089567;28;20581;-77
2022/03/07 01:09:12;;;;;;;3.00;1.08;;;;;;;2.50;48.04;102079.53;5091736;28;20055;-76
2022/03/07 01:11:46;;;;;;;0.40;0.40;;;;;;;2.49;48.25;102080.34;5095480;28;20259;-77
2022/03/07 01:14:16;;;;;;;;;;;;;;;2.47;48.80;102082.03;5161386;28;20037;-77
2022/03/07 01:16:49;;;;;;;0.82;0.82;;;;;;;2.39;48.35;102078.34;5154052;28;19933;-77
2022/03/07 01:19:19;;;;;;;0.45;0.45;;;;;;;2.26;48.84;102081.41;5173663;28;20454;-77
2022/03/07 01:21:53;;;;;;;2.85;1.77;;;;;;;2.28;49.30;102075.44;5145852;28;20045;-76
2022/03/07 01:24:23;;;;;;;0.40;0.40;;;;;;;2.10;49.51;102070.63;5147790;28;20030;-75
2022/03/07 01:26:54;;;;;;;0.57;0.57;;;;;;;2.21;49.29;102070.91;5174600;28;20032;-76
2022/03/07 01:29:24;;;;;;;0.70;0.70;;;;;;;2.03;50.34;102071.22;5166310;28;20237;-77
2022/03/07 01:31:55;;;;;;;0.38;0.38;;;;;;;2.14;49.75;102075.03;5164693;28;20022;-77
2022/03/07 01:34:25;;;;;;;1.08;0.98;;;;;;;2.16;49.45;102070.78;5154993;28;20616;-77
2022/03/07 01:36:56;;;;;;;0.20;0.20;;;;;;;2.18;49.63;102068.22;5181451;28;20026;-77
2022/03/07 01:39:27;;;;;;;0.63;0.63;;;;;;;2.21;49.42;102063.16;5145864;28;20026;-77
2022/03/07 01:42:18;;;;;;;0.43;0.43;;;;;;;2.31;49.45;102059.09;5167174;28;20037;-77
2022/03/07 01:44:49;;;;;;;0.60;0.60;;;;;;;2.01;50.04;102060.84;5174989;28;20252;-77
2022/03/07 01:47:24;;;;;;;0.68;0.68;;;;;;;1.79;51.01;102051.53;5160393;28;20480;-77
2022/03/07 01:49:54;;;;;;;0.50;0.50;;;;;;;1.93;49.98;102051.97;5157596;28;20030;-77
2022/03/07 01:52:26;;;;;;;1.60;1.05;;;;;;;1.87;50.34;102052.66;5167791;28;20527;-77
2022/03/07 01:54:57;;;;;;;0.40;0.40;;;;;;;1.82;50.16;102056.81;5172294;28;20579;-76
2022/03/07 01:57:30;;;;;;;0.68;0.68;;;;;;;1.76;51.21;102055.75;5168974;28;20050;-77
2022/03/07 02:00:04;;;;;;;0.35;0.35;;;;;;;1.84;50.14;102052.59;5174255;28;20042;-77
2022/03/07 02:02:44;;;;;;;0.38;0.38;;;;;;;1.83;50.83;102048.22;5142159;28;20038;-78
2022/03/07 02:05:15;;;;;;;0.88;0.88;;;;;;;1.52;52.32;102043.81;5149617;28;20053;-77
2022/03/07 02:07:46;;;;;;;0.20;0.20;;;;;;;1.50;51.38;102046.34;5161353;28;20389;-76
2022/03/07 02:10:17;;;;;;;0.40;0.40;;;;;;;1.65;50.85;102047.66;5169168;28;20046;-77
2022/03/07 02:12:47;;;;;;;0.47;0.47;;;;;;;1.63;51.51;102049.31;5153638;28;20056;-77
2022/03/07 02:15:21;;;;;;;1.08;0.93;;;;;;;1.45;51.43;102047.03;5145006;28;20069;-77
2022/03/07 02:17:51;;;;;;;;;;;;;;;1.44;51.36;102042.69;5154336;28;23469;-77
2022/03/07 02:20:22;;;;;;;1.23;1.23;;;;;;;1.64;51.16;102040.72;5160269;28;19959;-77
2022/03/07 02:22:53;;;;;;;0.30;0.30;;;;;;;1.67;50.63;102048.59;5163151;28;20033;-77
2022/03/07 02:25:27;;;;;;;0.30;0.30;;;;;;;1.40;52.10;102039.13;5181390;28;20037;-79
2022/03/07 02:28:02;;;;;;;0.85;0.85;;;;;;;1.47;51.43;102041.06;5179374;28;20105;-77
2022/03/07 02:30:33;;;;;;;0.35;0.35;;;;;;;1.30;52.47;102042.25;5156282;28;20508;-78
2022/03/07 02:33:13;;;;;;;0.88;0.88;;;;;;;1.53;51.11;102041.25;5156678;28;20038;-77
2022/03/07 02:35:45;;;;;;;0.65;0.65;;;;;;;1.64;50.59;102033.84;5141238;28;20034;-80
2022/03/07 02:38:16;;;;;;;0.40;0.40;;;;;;;1.62;50.84;102034.63;5155615;28;20778;-79
2022/03/07 02:40:48;;;;;;;0.60;0.60;;;;;;;1.60;50.76;102037.16;5155960;28;20037;-77
2022/03/07 02:43:19;;;;;;;0.30;0.30;;;;;;;1.73;50.42;102038.44;5186207;28;20075;-77
2022/03/07 02:45:52;;;;;;;;;;;;;;;1.56;50.85;102038.78;5149756;28;20065;-79
2022/03/07 02:48:26;;;;;;;0.25;0.25;;;;;;;1.50;51.17;102038.59;5195219;28;19960;-77
2022/03/07 02:50:59;;;;;;;0.60;0.60;;;;;;;1.61;50.92;102038.06;5169365;28;20413;-77
2022/03/07 02:53:30;;;;;;;0.30;0.30;;;;;;;1.68;50.47;102038.28;5174798;28;20038;-79
2022/03/07 02:56:00;;;;;;;0.30;0.30;;;;;;;1.54;51.05;102039.56;5165451;28;20046;-79
2022/03/07 02:58:31;;;;;;;0.60;0.60;;;;;;;1.67;50.55;102039.09;5138618;28;20061;-80
2022/03/07 03:01:09;;;;;;;0.22;0.22;;;;;;;1.82;50.06;102036.13;5163709;28;20046;-77
2022/03/07 03:03:40;;;;;;;0.30;0.30;;;;;;;1.85;49.70;102038.81;5155113;28;20121;-77
2022/03/07 03:06:13;;;;;;;0.38;0.38;;;;;;;1.77;50.97;102035.13;5151910;28;20157;-77
2022/03/07 03:08:43;;;;;;;0.30;0.30;;;;;;;1.64;50.40;102035.56;5166590;28;20046;-77
2022/03/07 03:11:14;;;;;;;0.32;0.32;;;;;;;1.75;50.13;102033.28;5155580;28;20087;-77
2022/03/07 03:13:45;;;;;;;0.47;0.47;;;;;;;1.78;50.46;102031.66;5170990;28;20069;-78
2022/03/07 03:16:16;;;;;;;0.75;0.75;;;;;;;1.61;51.13;102027.72;5163018;28;20030;-79
2022/03/07 03:18:46;;;;;;;0.57;0.57;;;;;;;1.68;51.73;102029.66;5177224;28;20036;-79
2022/03/07 03:21:21;;;;;;;1.00;1.00;;;;;;;1.46;52.22;102038.44;5159449;28;20038;-78
2022/03/07 03:23:54;;;;;;;0.32;0.32;;;;;;;1.61;51.51;102040.66;5173466;28;20065;-77
2022/03/07 03:26:26;;;;;;;0.30;0.30;;;;;;;1.71;51.68;102042.66;5157108;28;20030;-77
2022/03/07 03:28:57;;;;;;;0.40;0.40;;;;;;;1.58;51.62;102049.16;5156615;28;20032;-81
2022/03/07 03:31:32;;;;;;;18.02;1.90;;;;;;;1.69;50.77;102052.13;5156547;28;20100;-77
2022/03/07 03:34:12;;;;;;;0.50;0.50;;;;;;;1.55;51.94;102055.13;5164420;28;20034;-78
2022/03/07 03:36:43;;;;;;;0.47;0.47;;;;;;;1.63;51.30;102054.50;5170050;28;20348;-77
2022/03/07 03:39:14;;;;;;;0.50;0.50;;;;;;;1.61;51.34;102057.03;5159353;28;20121;-77
2022/03/07 03:41:47;;;;;;;0.40;0.40;;;;;;;1.51;52.14;102062.75;5169238;28;20050;-77
2022/03/07 03:44:18;;;;;;;0.30;0.30;;;;;;;1.58;51.16;102059.53;5150819;28;20030;-81
2022/03/07 03:46:48;;;;;;;0.30;0.30;;;;;;;1.60;51.08;102063.03;5150410;28;20104;-78
2022/03/07 03:49:19;;;;;;;0.80;0.80;;;;;;;1.59;51.34;102060.41;5169981;28;20041;-76
2022/03/07 03:51:49;;;;;;;0.68;0.60;;;;;;;1.58;50.68;102062.09;5172849;28;20038;-77
2022/03/07 03:54:20;;;;;;;1.13;1.08;;;;;;;1.61;50.87;102063.94;5161623;28;20136;-77
2022/03/07 03:56:51;;;;;;;0.43;0.43;;;;;;;1.55;51.03;102065.47;5175390;28;20026;-77
2022/03/07 03:59:24;;;;;;;0.50;0.50;;;;;;;1.59;50.88;102071.63;5154818;28;20044;-77
2022/03/07 04:01:54;;;;;;;0.30;0.30;;;;;;;1.70;50.36;102074.53;5149460;28;20043;-76
2022/03/07 04:04:25;;;;;;;0.75;0.75;;;;;;;1.66;50.78;102070.13;5148769;28;20038;-77
2022/03/07 04:06:55;;;;;;;0.30;0.30;;;;;;;1.67;51.02;102070.16;5169196;28;20458;-77
2022/03/07 04:09:26;;;;;;;0.30;0.30;;;;;;;1.68;50.81;102081.41;5167848;28;20045;-77
2022/03/07 04:11:56;;;;;;;0.38;0.38;;;;;;;1.68;50.48;102071.06;5154772;28;20037;-77
2022/03/07 04:14:27;;;;;;;1.27;0.85;;;;;;;1.66;50.25;102078.75;5151517;28;20113;-77
2022/03/07 04:16:59;;;;;;;0.30;0.30;;;;;;;1.54;51.05;102084.41;5181014;28;20102;-77
2022/03/07 04:19:29;;;;;;;0.30;0.30;;;;;;;1.60;50.67;102083.75;5168829;28;20038;-77
2022/03/07 04:22:00;;;;;;;0.30;0.30;;;;;;;1.56;50.78;102084.47;5159401;28;20500;-77
2022/03/07 04:24:31;;;;;;;0.30;0.30;;;;;;;1.52;50.52;102088.69;5157361;28;20121;-77
2022/03/07 04:27:03;;;;;;;0.35;0.35;;;;;;;1.56;50.62;102081.91;5166719;28;20026;-76
2022/03/07 04:29:42;;;;;;;0.60;0.60;;;;;;;1.50;50.46;102076.50;5140668;28;20109;-77
2022/03/07 04:32:13;;;;;;;0.80;0.68;;;;;;;1.57;50.70;102084.53;5165770;28;20092;-76
2022/03/07 04:34:49;;;;;;;0.95;0.95;;;;;;;1.54;50.66;102087.00;5149739;28;20056;-77
2022/03/07 04:37:19;;;;;;;0.40;0.40;;;;;;;1.55;50.80;102086.19;5172743;28;20026;-77
2022/03/07 04:39:50;;;;;;;0.30;0.30;;;;;;;1.56;50.47;102087.94;5150561;28;20045;-77
2022/03/07 04:42:21;;;;;;;0.75;0.75;;;;;;;1.51;50.59;102086.91;5135989;28;20030;-77
2022/03/07 04:44:51;;;;;;;0.30;0.30;;;;;;;1.52;50.76;102090.38;5145801;28;20038;-78
2022/03/07 04:47:22;;;;;;;0.20;0.20;;;;;;;1.50;50.61;102092.03;5174924;28;20540;-77
2022/03/07 04:49:52;;;;;;;0.30;0.30;;;;;;;1.43;50.75;102090.97;5157335;28;20842;-77
2022/03/07 04:52:23;;;;;;;0.30;0.30;;;;;;;1.45;51.04;102088.41;5141406;28;20126;-77
2022/03/07 04:54:53;;;;;;;1.75;1.65;;;;;;;1.47;51.01;102087.63;5159853;28;20389;-77
2022/03/07 04:57:24;;;;;;;0.30;0.30;;;;;;;1.46;50.42;102093.63;5159667;28;20459;-77
2022/03/07 04:59:56;;;;;;;3.33;1.40;;;;;;;1.43;50.97;102093.56;5156894;28;20129;-77
2022/03/07 05:02:27;;;;;;;0.40;0.40;;;;;;;1.46;51.12;102101.41;5152487;28;20516;-77
2022/03/07 05:04:57;;;;;;;0.35;0.35;;;;;;;1.29;51.06;102103.44;5167140;28;20042;-77
2022/03/07 05:07:28;;;;;;;0.30;0.30;;;;;;;1.39;50.83;102089.09;5184546;28;20044;-77
2022/03/07 05:09:58;;;;;;;0.77;0.77;;;;;;;1.38;50.94;102092.50;5155697;28;20048;-77
2022/03/07 05:12:29;;;;;;;0.70;0.70;;;;;;;1.39;50.77;102094.25;5157882;28;20073;-77
2022/03/07 05:14:59;;;;;;;0.88;0.88;;;;;;;1.29;51.35;102093.09;5178224;28;20048;-77
2022/03/07 05:17:30;;;;;;;0.30;0.30;;;;;;;1.13;51.89;102091.69;5173632;28;20041;-78
2022/03/07 05:20:00;;;;;;;0.30;0.30;;;;;;;1.21;51.57;102100.56;5170719;28;20053;-78
2022/03/07 05:22:31;;;;;;;0.30;0.30;;;;;;;1.33;51.31;102107.00;5143295;28;20037;-77
2022/03/07 05:25:05;;;;;;;0.60;0.60;;;;;;;1.31;51.27;102104.38;5159103;28;20040;-77
2022/03/07 05:27:38;;;;;;;0.30;0.30;;;;;;;1.28;51.10;102111.16;5159228;28;20037;-77
2022/03/07 05:30:13;;;;;;;0.30;0.30;;;;;;;1.27;51.27;102112.84;5159940;28;20084;-77
2022/03/07 05:32:50;;;;;;;0.38;0.38;;;;;;;1.21;52.03;102102.31;5179226;28;20099;-77
2022/03/07 05:35:23;;;;;;;0.40;0.40;;;;;;;1.22;51.61;102111.81;5163670;28;20054;-77
2022/03/07 05:37:54;;;;;;;0.40;0.40;;;;;;;1.24;51.43;102110.16;5168135;28;20033;-77
2022/03/07 05:40:30;;;;;;;1.67;1.58;;;;;;;1.17;51.92;102118.53;5168944;28;20050;-77
2022/03/07 05:43:00;;;;;;;0.30;0.30;;;;;;;1.21;51.19;102120.41;5152446;28;20034;-78
2022/03/07 05:45:31;;;;;;;0.40;0.40;;;;;;;1.21;51.43;102116.09;5151846;28;20049;-77
2022/03/07 05:48:02;;;;;;;0.30;0.30;;;;;;;1.17;51.57;102114.25;5171322;28;20034;-78
2022/03/07 05:50:32;;;;;;;0.30;0.30;;;;;;;1.17;51.71;102116.84;5157765;28;20074;-77
2022/03/07 05:53:03;;;;;;;0.38;0.38;;;;;;;1.21;51.18;102116.09;5160463;28;20033;-77
2022/03/07 05:55:36;;;;;;;0.40;0.40;;;;;;;1.27;51.85;102112.84;5161395;28;20128;-77
2022/03/07 05:58:09;;;;;;;0.40;0.40;;;;;;;1.27;51.51;102114.56;5169218;28;20029;-78
2022/03/07 06:00:39;;;;;;;0.30;0.30;;;;;;;1.22;51.47;102112.69;5141484;28;20072;-77
2022/03/07 06:03:11;;;;;;;0.30;0.30;;;;;;;1.16;51.58;102111.63;5167587;28;20033;-77
2022/03/07 06:05:43;;;;;;;;;;;;;;;1.22;51.94;102110.09;5162010;28;20042;-77
2022/03/07 06:08:14;;;;;;;0.60;0.60;;;;;;;1.21;51.88;102107.47;5168944;28;19927;-77
2022/03/07 06:10:45;;;;;;;0.95;0.95;;;;;;;1.21;51.74;102104.88;5155909;28;20034;-77
2022/03/07 06:13:15;;;;;;;0.40;0.40;;;;;;;1.23;51.38;102104.09;5156598;28;20026;-78
2022/03/07 06:15:46;;;;;;;0.50;0.50;;;;;;;1.26;51.70;102113.66;5166685;28;20046;-78
2022/03/07 06:18:17;;;;;;;0.47;0.47;;;;;;;1.30;51.71;102117.22;5154224;28;20060;-78
2022/03/07 06:20:50;;;;;;;0.38;0.38;;;;;;;1.27;51.46;102122.31;5159827;28;20061;-78
2022/03/07 06:23:21;;;;;;;0.50;0.50;;;;;;;1.27;51.23;102125.78;5171761;28;20025;-78
2022/03/07 06:25:51;;;;;;;0.40;0.40;;;;;;;1.24;51.18;102129.13;5151998;28;20649;-78
2022/03/07 06:28:22;;;;;;;0.20;0.20;;;;;;;1.24;51.90;102130.84;5165814;28;20115;-78
2022/03/07 06:30:55;;;;;;;0.70;0.70;;;;;;;1.25;51.83;102132.59;5159406;28;20053;-78
2022/03/07 06:33:26;;;;;;;0.65;0.65;;;;;;;1.19;51.57;102130.69;5160089;28;20132;-77
2022/03/07 06:35:57;;;;;;;0.73;0.73;;;;;;;1.15;51.60;102127.97;5157701;28;20038;-78
2022/03/07 06:38:27;;;;;;;0.25;0.25;;;;;;;1.17;51.36;102129.75;5170982;28;20140;-78
2022/03/07 06:40:58;;;;;;;0.50;0.50;;;;;;;1.19;51.55;102137.56;5154973;28;20045;-78
2022/03/07 06:43:28;;;;;;;0.30;0.30;;;;;;;1.19;51.60;102132.38;5159002;28;20033;-77
2022/03/07 06:45:59;;;;;;;0.60;0.60;;;;;;;1.16;52.28;102135.75;5175694;28;20501;-77
2022/03/07 06:48:30;;;;;;;0.60;0.60;;;;;;;1.19;51.65;102135.88;5158477;28;20370;-78
2022/03/07 06:51:01;;;;;;;0.77;0.77;;;;;;;1.19;52.03;102132.38;5159096;28;20064;-77
2022/03/07 06:53:35;;;;;;;0.40;0.40;;;;;;;1.20;51.91;102140.19;5173663;28;20125;-77
2022/03/07 06:56:06;;;;;;;0.30;0.30;;;;;;;1.20;51.59;102135.00;5157415;28;20058;-77
2022/03/07 06:58:41;;;;;;;1.55;1.40;;;;;;;1.17;52.07;102140.09;5174322;28;20053;-78
2022/03/07 07:01:11;;;;;;;0.77;0.77;;;;;;;1.16;51.74;102138.34;5153564;28;20693;-78
2022/03/07 07:03:42;;;;;;;0.25;0.25;;;;;;;1.05;52.34;102139.66;5158653;28;20037;-77
2022/03/07 07:06:13;;;;;;;1.10;1.10;;;;;;;1.07;51.96;102143.19;5158372;28;20056;-78
2022/03/07 07:08:43;;;;;;;0.30;0.30;;;;;;;1.11;52.07;102139.91;5154609;28;20076;-78
2022/03/07 07:11:14;;;;;;;0.43;0.43;;;;;;;1.10;51.70;102133.81;5156427;28;20130;-78
2022/03/07 07:13:46;;;;;;;1.08;1.02;;;;;;;1.01;53.00;102141.25;5173832;28;20460;-77
2022/03/07 07:16:16;;;;;;;0.50;0.50;;;;;;;1.05;52.32;102144.81;5156520;28;20061;-78
2022/03/07 07:18:47;;;;;;;0.73;0.73;;;;;;;1.03;52.42;102147.38;5173060;28;20030;-77
2022/03/07 07:21:17;;;;;;;0.40;0.40;;;;;;;1.05;52.03;102160.34;5158039;28;20042;-78
2022/03/07 07:23:57;;;;;;;0.40;0.40;;;;;;;1.02;52.39;102152.50;5161602;28;20026;-77
2022/03/07 07:27:41;;;;;;;0.30;0.30;;;;;;;0.98;52.71;102156.69;5157001;28;20042;-79
2022/03/07 07:30:12;;;;;;;0.35;0.35;;;;;;;1.03;52.60;102156.84;5168855;28;20117;-77
2022/03/07 07:32:42;;;;;;;0.57;0.57;;;;;;;0.98;52.43;102155.78;5174019;28;20552;-78
2022/03/07 07:35:13;;;;;;;0.25;0.25;;;;;;;1.03;52.39;102154.25;5168259;28;20046;-78
2022/03/07 07:37:43;;;;;;;0.20;0.20;;;;;;;0.90;53.26;102160.69;5176267;28;20048;-78
2022/03/07 07:40:14;;;;;;;0.30;0.30;;;;;;;1.10;52.19;102154.50;5171074;28;20054;-78
2022/03/07 07:42:44;;;;;;;0.30;0.30;;;;;;;1.09;52.82;102163.09;5167900;28;20144;-78
2022/03/07 07:45:15;;;;;;;0.43;0.43;;;;;;;1.20;52.27;102160.00;5174366;28;20049;-78
2022/03/07 07:47:45;;;;;;;0.28;0.28;;;;;;;1.11;52.60;102170.91;5157101;28;20030;-78
2022/03/07 07:50:16;;;;;;;0.57;0.57;;;;;;;1.25;51.97;102159.34;5154787;28;20038;-78
2022/03/07 07:52:46;;;;;;;0.40;0.40;;;;;;;1.23;52.62;102161.00;5137775;28;20037;-77
2022/03/07 07:55:17;;;;;;;0.47;0.47;;;;;;;1.03;52.42;102167.19;5159369;28;20050;-77
2022/03/07 07:57:47;;;;;;;0.32;0.32;;;;;;;1.25;52.55;102163.63;5163870;28;20041;-76
2022/03/07 08:00:21;;;;;;;0.30;0.30;;;;;;;1.18;52.63;102167.72;5163458;28;20030;-77
2022/03/07 08:02:56;;;;;;;0.30;0.30;;;;;;;1.30;52.00;102161.19;5164021;28;20031;-78
2022/03/07 08:05:27;;;;;;;0.35;0.35;;;;;;;1.25;52.15;102158.44;5155445;28;20046;-78
2022/03/07 08:07:57;;;;;;;3.83;1.77;;;;;;;1.32;51.66;102162.13;5153402;28;20041;-78
2022/03/07 08:10:31;;;;;;;0.22;0.22;;;;;;;1.24;52.24;102160.16;5168739;28;20687;-77
2022/03/07 08:13:01;;;;;;;0.30;0.30;;;;;;;1.33;52.36;102171.66;5150464;28;20069;-76
2022/03/07 08:15:32;;;;;;;1.05;1.05;;;;;;;1.40;52.09;102166.75;5162025;28;20513;-77
2022/03/07 08:18:03;;;;;;;0.50;0.50;;;;;;;1.51;51.75;102171.38;5166286;28;20117;-77
2022/03/07 08:20:34;;;;;;;0.30;0.30;;;;;;;1.29;52.49;102170.66;5158914;28;20049;-77
2022/03/07 08:23:05;;;;;;;1.85;1.20;;;;;;;1.24;52.53;102173.09;5178660;28;20038;-78
2022/03/07 08:25:36;;;;;;;0.47;0.47;;;;;;;1.25;52.17;102169.69;5165581;28;20649;-78
2022/03/07 08:28:08;;;;;;;0.90;0.90;;;;;;;1.39;52.35;102165.00;5171996;28;20041;-78
2022/03/07 08:30:41;;;;;;;0.50;0.50;;;;;;;1.59;51.54;102159.59;5151701;28;20111;-78
2022/03/07 08:33:11;;;;;;;0.30;0.30;;;;;;;1.40;52.60;102164.19;5159831;28;20042;-78
2022/03/07 08:35:44;;;;;;;0.20;0.20;;;;;;;1.46;52.20;102162.59;5168607;28;20045;-78
2022/03/07 08:38:15;;;;;;;0.30;0.30;;;;;;;1.48;51.22;102167.00;5166835;28;20128;-78
2022/03/07 08:40:48;;;;;;;0.30;0.30;;;;;;;1.46;51.17;102160.88;5155134;28;20169;-78
2022/03/07 08:43:18;;;;;;;0.30;0.30;;;;;;;1.40;51.57;102163.28;5180514;28;20569;-78
2022/03/07 08:45:49;;;;;;;0.30;0.30;;;;;;;1.53;50.68;102164.56;5177674;28;20034;-79
2022/03/07 08:48:20;;;;;;;0.35;0.35;;;;;;;1.57;50.96;102167.31;5162152;28;20041;-78
2022/03/07 08:50:51;;;;;;;0.40;0.40;;;;;;;1.56;50.34;102173.31;5169302;28;20046;-78
2022/03/07 08:53:21;;;;;;;0.30;0.30;;;;;;;1.63;50.79;102163.16;5176301;28;20045;-79
2022/03/07 08:55:52;;;;;;;0.40;0.40;;;;;;;1.87;50.44;102163.09;5165558;28;20038;-76
2022/03/07 08:58:22;;;;;;;0.40;0.40;;;;;;;1.87;50.31;102169.13;5171769;28;20109;-79
2022/03/07 09:00:53;;;;;;;0.60;0.60;;;;;;;1.76;50.62;102161.84;5165466;28;20578;-77
2022/03/07 09:03:24;;;;;;;0.20;0.20;;;;;;;1.84;50.29;102161.28;5156077;28;20022;-78
2022/03/07 09:05:54;;;;;;;1.30;1.20;;;;;;;2.01;49.88;102172.16;5181178;28;20038;-75
2022/03/07 09:08:25;;;;;;;0.25;0.25;;;;;;;1.95;48.75;102160.72;5159857;28;20366;-77
2022/03/07 09:10:55;;;;;;;0.77;0.77;;;;;;;1.95;49.57;102168.50;5165907;28;20042;-77
2022/03/07 09:13:26;;;;;;;0.40;0.40;;;;;;;2.11;49.86;102164.69;5159581;28;20034;-76
2022/03/07 09:15:56;;;;;;;0.30;0.30;;;;;;;2.10;49.07;102158.66;5163473;28;20033;-76
2022/03/07 09:18:27;;;;;;;0.30;0.30;;;;;;;2.13;48.51;102163.03;5177212;28;20061;-78
2022/03/07 09:21:10;;;;;;;0.40;0.40;;;;;;;2.25;48.54;102165.13;5159134;28;20116;-77
2022/03/07 09:23:42;;;;;;;0.30;0.30;;;;;;;2.18;47.19;102157.19;5167482;28;20620;-77
2022/03/07 09:26:21;;;;;;;0.30;0.30;;;;;;;2.25;48.14;102158.22;5138054;28;20681;-79
2022/03/07 09:28:52;;;;;;;0.30;0.30;;;;;;;2.27;47.87;102166.91;5176439;28;20044;-76
2022/03/07 09:31:22;;;;;;;0.57;0.57;;;;;;;2.30;47.69;102155.78;5178619;28;20045;-78
2022/03/07 09:33:53;;;;;;;0.30;0.30;;;;;;;2.42;47.60;102156.16;5163234;28;20030;-77
2022/03/07 09:36:26;;;;;;;0.20;0.20;;;;;;;2.48;47.79;102158.06;5187842;28;20576;-77
2022/03/07 09:38:59;;;;;;;0.50;0.50;;;;;;;2.45;47.58;102151.03;5164005;28;20058;-77
2022/03/07 09:41:30;;;;;;;0.40;0.40;;;;;;;2.55;47.75;102159.09;5155993;28;20038;-77
2022/03/07 09:44:01;;;;;;;0.70;0.70;;;;;;;2.59;47.58;102143.69;5175398;28;20374;-78
2022/03/07 09:46:32;;;;;;;1.38;1.20;;;;;;;2.63;47.65;102145.53;5153557;28;20043;-79
2022/03/07 09:49:03;;;;;;;0.30;0.30;;;;;;;2.63;47.57;102142.03;5168801;28;20034;-78
2022/03/07 09:51:34;;;;;;;0.30;0.30;;;;;;;2.63;46.93;102145.53;5155582;28;20054;-78
2022/03/07 09:54:07;;;;;;;0.47;0.47;;;;;;;2.65;47.55;102141.25;5172702;28;20099;-78
2022/03/07 09:56:48;;;;;;;0.35;0.35;;;;;;;2.71;47.45;102139.69;5154061;28;20046;-78
2022/03/07 09:59:20;;;;;;;0.20;0.20;;;;;;;2.68;47.26;102140.47;5155532;28;20029;-81
2022/03/07 10:02:14;;;;;;;0.45;0.45;;;;;;;2.95;47.49;102136.88;5158891;28;20128;-81
2022/03/07 10:04:46;;;;;;;0.63;0.63;;;;;;;2.74;46.76;102132.88;5157185;28;20056;-80
2022/03/07 10:07:17;;;;;;;0.50;0.50;;;;;;;2.87;47.83;102128.91;5167203;28;20034;-80
2022/03/07 10:09:48;;;;;;;2.65;1.45;;;;;;;2.81;47.39;102124.44;5153165;28;20113;-78
2022/03/07 10:12:28;;;;;;;0.40;0.40;;;;;;;2.87;47.25;102128.91;5140469;28;20117;-81
2022/03/07 10:15:10;;;;;;;0.20;0.20;;;;;;;2.92;47.47;102121.25;5158048;28;20540;-79
2022/03/07 10:17:55;;;;;;;0.30;0.30;;;;;;;3.06;47.91;102125.09;5161707;28;20034;-81
2022/03/07 10:20:26;;;;;;;0.40;0.40;;;;;;;3.22;47.79;102125.50;5168999;28;20125;-79
2022/03/07 10:23:03;;;;;;;0.52;0.52;;;;;;;3.12;46.73;102119.19;5175132;28;20158;-79
2022/03/07 10:25:42;;;;;;;0.30;0.30;;;;;;;3.11;47.53;102113.13;5172566;28;20037;-79
2022/03/07 10:37:40;;;;;;;3.60;2.42;;;;;;;3.19;47.68;102109.84;5048902;29;20051;-80
2022/03/07 10:41:28;;;;;;;0.52;0.52;;;;;;;3.12;46.95;102117.47;4952397;29;20038;-78
2022/03/07 10:49:13;;;;;;;0.20;0.20;;;;;;;3.41;46.96;102106.06;5155881;28;20095;-78
2022/03/07 10:52:22;;;;;;;0.20;0.20;;;;;;;3.37;47.29;102106.84;5153935;28;20045;-78
2022/03/07 10:55:36;;;;;;;0.32;0.32;;;;;;;3.45;47.26;102101.00;5158542;28;20067;-79
2022/03/07 11:03:13;;;;;;;0.22;0.22;;;;;;;3.65;47.47;102098.03;4964323;29;20144;-79
2022/03/07 11:06:46;;;;;;;0.20;0.20;;;;;;;3.80;45.98;102096.63;5035377;29;20040;-78
2022/03/07 11:09:46;;;;;;;0.22;0.22;;;;;;;3.86;47.10;102084.66;5086933;28;20134;-79
2022/03/07 11:16:27;;;;;;;;;;;;;;;3.93;46.12;102070.06;5113347;28;20361;-78
2022/03/07 11:19:25;;;;;;;0.20;0.20;;;;;;;4.06;46.89;102072.13;5164231;28;20325;-78
2022/03/07 11:21:56;;;;;;;0.40;0.40;;;;;;;4.12;45.42;102060.97;5176954;28;20030;-78
2022/03/07 11:24:36;;;;;;;0.20;0.20;;;;;;;4.18;45.74;102065.41;5156826;28;20694;-78
2022/03/07 11:27:10;;;;;;;0.25;0.25;;;;;;;4.20;46.00;102061.13;5192777;28;20046;-78
2022/03/07 11:29:41;;;;;;;0.75;0.75;;;;;;;4.33;44.82;102057.97;5163469;28;20575;-79
2022/03/07 11:32:18;;;;;;;0.30;0.30;;;;;;;4.33;45.70;102044.06;5182803;28;20038;-79
2022/03/07 11:34:53;;;;;;;0.38;0.38;;;;;;;4.38;45.33;102032.06;5155087;28;20646;-79
2022/03/07 11:37:28;;;;;;;0.30;0.30;;;;;;;4.43;45.85;102034.72;5168320;28;20091;-81
2022/03/07 11:40:00;;;;;;;5.72;1.60;;;;;;;4.51;45.61;102027.94;5152835;28;20072;-80
2022/03/07 11:42:36;;;;;;;0.75;0.75;;;;;;;4.65;45.33;102021.31;5139178;28;20034;-78
2022/03/07 11:45:10;;;;;;;0.25;0.25;;;;;;;4.61;44.94;102005.63;5172642;28;20616;-78
2022/03/07 11:47:41;;;;;;;0.40;0.40;;;;;;;4.63;44.25;102003.94;5169158;28;20320;-78
2022/03/07 11:50:12;;;;;;;0.40;0.40;;;;;;;4.81;44.20;102003.38;5155561;28;20577;-79
2022/03/07 11:52:43;;;;;;;0.32;0.32;;;;;;;4.87;44.16;102006.06;5170704;28;20034;-79
2022/03/07 11:55:19;;;;;;;0.40;0.40;;;;;;;4.93;44.42;102000.09;5155946;28;20045;-79
2022/03/07 11:58:04;;;;;;;0.20;0.20;;;;;;;5.09;43.72;101993.41;5164005;28;20030;-79
2022/03/07 12:00:36;;;;;;;0.32;0.32;;;;;;;5.10;43.46;101988.25;5174652;28;20065;-78
2022/03/07 12:03:15;;;;;;;0.30;0.30;;;;;;;5.22;43.99;101987.56;5160286;28;20822;-78
2022/03/07 12:05:45;;;;;;;0.20;0.20;;;;;;;5.28;44.02;101987.66;5172929;28;20069;-78
2022/03/07 12:08:18;;;;;;;0.30;0.30;;;;;;;5.44;42.79;101990.50;5161531;28;20030;-76
2022/03/07 12:11:09;;;;;;;0.60;0.60;;;;;;;5.39;43.75;101979.16;5156402;28;20030;-77
2022/03/07 12:13:48;;;;;;;0.50;0.50;;;;;;;5.51;43.38;101979.31;5171980;28;20096;-77
2022/03/07 12:16:30;;;;;;;0.60;0.60;;;;;;;5.53;44.18;101976.75;5173188;28;20038;-77
2022/03/07 12:19:08;;;;;;;0.30;0.30;;;;;;;5.83;43.13;101977.16;5181321;28;20113;-80
2022/03/07 12:21:41;;;;;;;0.40;0.40;;;;;;;5.78;42.43;101972.72;5169341;28;20033;-78
2022/03/07 12:24:17;;;;;;;0.30;0.30;;;;;;;5.77;43.29;101964.06;5155966;28;20683;-78
2022/03/07 12:26:53;;;;;;;0.20;0.20;;;;;;;5.76;43.32;101964.00;5156919;28;20047;-78
2022/03/07 12:29:25;;;;;;;0.50;0.50;;;;;;;5.98;43.81;101957.34;5154579;28;20026;-80
2022/03/07 12:31:59;;;;;;;0.50;0.50;;;;;;;6.14;42.45;101955.84;5159001;28;20037;-79